Time;durP1;ratioP1;P1;durP2;ratioP2;P2;SDS_P1;SDS_P2;PMS_P1;PMS_P2;Temp;Humidity;BMP_temperature;BMP_pressure;BME280_temperature;BME280_humidity;BME280_pressure;Samples;Min_cycle;Max_cycle;Signal;HPM_P1;HPM_P2
2022/04/18 00:06:02;;;;;;;24.30;14.20;;;;;;;-0.09;60.17;99977.09;448054;1265;142088;-58
2022/04/18 00:16:08;;;;;;;22.80;14.50;;;;;;;-0.25;60.50;99974.56;447338;1265;143688;-58
2022/04/18 00:26:14;;;;;;;16.30;11.40;;;;;;;-0.28;60.44;99959.98;440490;1269;143259;-58
2022/04/18 00:36:20;;;;;;;18.60;11.90;;;;;;;-0.29;60.49;99948.45;431644;1267;141842;-57
2022/04/18 00:46:26;;;;;;;14.40;9.10;;;;;;;-0.28;60.26;99940.88;446643;1269;142659;-58
2022/04/18 00:56:33;;;;;;;16.90;11.50;;;;;;;-0.17;59.87;99921.63;448086;1266;141172;-58
2022/04/18 01:06:38;;;;;;;19.90;12.20;;;;;;;-0.22;60.49;99906.89;448057;1266;142402;-59
2022/04/18 01:16:44;;;;;;;18.20;12.00;;;;;;;-0.30;60.72;99898.05;448095;1265;141764;-58
2022/04/18 01:37:13;;;;;;;22.50;15.60;;;;;;;-0.51;61.09;99894.22;447308;1267;143287;-57
2022/04/18 01:47:19;;;;;;;24.20;16.40;;;;;;;-0.48;61.73;99889.54;442645;1266;141617;-58
2022/04/18 01:57:25;;;;;;;31.90;17.30;;;;;;;-0.38;61.85;99884.07;436408;1267;143690;-58
2022/04/18 02:07:30;;;;;;;19.40;13.20;;;;;;;-0.33;61.58;99874.18;446131;1269;142371;-59
2022/04/18 02:17:37;;;;;;;25.80;16.00;;;;;;;-0.27;61.73;99863.27;439002;1267;147095;-58
2022/04/18 02:27:42;;;;;;;13.70;9.00;;;;;;;-0.21;60.97;99858.02;447327;1267;162054;-57
2022/04/18 02:37:48;;;;;;;10.30;6.20;;;;;;;0.03;60.26;99853.69;448066;1268;143800;-58
2022/04/18 02:47:54;;;;;;;9.80;6.00;;;;;;;0.55;59.09;99853.98;448150;1267;141497;-58
2022/04/18 02:57:59;;;;;;;7.90;4.70;;;;;;;1.15;57.47;99845.91;447376;1267;140884;-58
2022/04/18 03:08:07;;;;;;;6.00;4.20;;;;;;;1.60;56.52;99842.70;448111;1267;141931;-59
2022/04/18 03:18:13;;;;;;;8.10;4.30;;;;;;;1.74;55.49;99831.16;448156;1267;140917;-59
2022/04/18 03:28:18;;;;;;;4.60;3.40;;;;;;;1.85;54.91;99836.44;447378;1267;141286;-58
2022/04/18 03:48:48;;;;;;;7.10;5.10;;;;;;;1.95;53.68;99831.17;439343;1267;140779;-57
2022/04/18 03:58:53;;;;;;;5.80;4.40;;;;;;;2.05;53.11;99831.45;433600;1268;141508;-57
2022/04/18 04:08:59;;;;;;;6.60;5.30;;;;;;;2.10;52.80;99830.63;448148;1267;140634;-58
2022/04/18 04:19:05;;;;;;;6.10;4.00;;;;;;;2.22;52.43;99831.20;447205;1268;196130;-58
2022/04/18 04:29:11;;;;;;;6.70;4.40;;;;;;;2.43;52.15;99826.85;443714;1269;140823;-57
2022/04/18 04:39:17;;;;;;;8.50;4.60;;;;;;;2.73;51.82;99826.58;448152;1267;142363;-58
2022/04/18 04:49:23;;;;;;;9.50;4.50;;;;;;;3.22;51.20;99824.98;447132;1270;140600;-58
2022/04/18 04:59:29;;;;;;;6.90;4.90;;;;;;;3.86;50.40;99819.20;447099;1268;141180;-58
2022/04/18 05:09:35;;;;;;;8.00;4.40;;;;;;;4.71;49.41;99814.77;448135;1268;140994;-58
2022/04/18 05:19:41;;;;;;;11.00;5.40;;;;;;;5.38;48.69;99811.73;443808;1268;140808;-58
2022/04/18 05:29:47;;;;;;;6.80;4.60;;;;;;;7.48;46.81;99811.35;448123;1268;142672;-58
2022/04/18 05:39:53;;;;;;;7.20;4.80;;;;;;;8.50;44.63;99817.84;447393;1267;141506;-59
2022/04/18 05:49:59;;;;;;;6.80;5.30;;;;;;;8.80;43.35;99817.88;445929;1268;141708;-58
2022/04/18 06:00:06;;;;;;;8.70;5.30;;;;;;;11.79;40.95;99806.20;436866;1267;143824;-58
2022/04/18 06:10:14;;;;;;;5.60;4.50;;;;;;;14.87;38.19;99805.39;447325;1268;142602;-59
2022/04/18 06:20:20;;;;;;;6.20;5.00;;;;;;;20.65;33.83;99794.39;448114;1267;142433;-59
2022/04/18 06:30:26;;;;;;;6.70;4.30;;;;;;;24.86;28.57;99785.05;437904;1268;142647;-58
2022/04/18 06:40:32;;;;;;;5.20;4.70;;;;;;;29.98;25.42;99774.63;433978;1268;145195;-58
2022/04/18 06:50:39;;;;;;;5.60;4.10;;;;;;;33.99;20.79;99773.16;439726;1268;140841;-58
2022/04/18 07:00:44;;;;;;;4.00;3.60;;;;;;;34.40;18.40;99766.81;447374;1267;140444;-59
2022/04/18 07:10:50;;;;;;;4.40;4.00;;;;;;;36.39;16.66;99758.23;448116;1267;142295;-58
2022/04/18 07:20:56;;;;;;;2.70;2.50;;;;;;;36.85;15.11;99754.79;448125;1268;142098;-59
2022/04/18 07:31:02;;;;;;;2.70;1.60;;;;;;;36.69;13.90;99752.47;447352;1268;164543;-59
2022/04/18 07:41:08;;;;;;;2.60;2.40;;;;;;;35.74;12.90;99761.55;448137;1268;142592;-59
2022/04/18 08:01:37;;;;;;;3.30;3.00;;;;;;;35.76;12.77;99766.02;432193;1268;142332;-60
2022/04/18 08:11:43;;;;;;;2.10;2.00;;;;;;;36.92;12.32;99771.33;447666;1268;141780;-58
2022/04/18 08:21:48;;;;;;;2.10;2.00;;;;;;;34.81;11.77;99768.25;447304;1267;141959;-59
2022/04/18 08:31:54;;;;;;;1.60;1.50;;;;;;;29.10;12.98;99760.83;447548;1270;140956;-59
2022/04/18 08:42:01;;;;;;;2.70;1.70;;;;;;;20.41;15.73;99763.79;448133;1265;142089;-60
2022/04/18 09:02:30;;;;;;;1.20;1.10;;;;;;;14.81;18.83;99774.27;448137;1267;143929;-59
2022/04/18 09:12:41;;;;;;;1.20;1.10;;;;;;;13.06;20.88;99773.23;448190;1267;140890;-60
2022/04/18 09:22:48;;;;;;;2.50;1.50;;;;;;;12.75;21.71;99759.54;448197;1267;141853;-59
2022/04/18 09:33:03;;;;;;;1.80;1.20;;;;;;;11.94;22.05;99760.67;447890;1268;142181;-59
2022/04/18 09:43:09;;;;;;;1.40;1.20;;;;;;;11.14;23.10;99753.36;442571;1269;143080;-58
2022/04/18 09:53:20;;;;;;;1.30;1.20;;;;;;;11.15;23.28;99733.52;444031;1267;141164;-58
2022/04/18 10:03:28;;;;;;;1.70;1.30;;;;;;;11.05;24.17;99715.27;444072;1267;141455;-58
2022/04/18 10:13:35;;;;;;;0.90;0.80;;;;;;;10.93;24.39;99717.05;447385;1267;142174;-58
2022/04/18 10:24:14;;;;;;;1.50;1.40;;;;;;;10.38;24.85;99692.79;448124;1267;141435;-58
2022/04/18 10:34:23;;;;;;;1.00;1.00;;;;;;;10.17;25.44;99679.67;447370;1267;140307;-58
2022/04/18 10:44:38;;;;;;;1.30;1.10;;;;;;;9.96;26.24;99687.38;448133;1267;145189;-58
2022/04/18 10:55:01;;;;;;;1.20;1.10;;;;;;;9.77;26.72;99675.08;441301;1267;152531;-58
2022/04/18 11:05:08;;;;;;;3.40;1.50;;;;;;;10.06;26.78;99670.50;439099;1267;140900;-58
2022/04/18 11:15:15;;;;;;;1.20;0.80;;;;;;;10.05;26.45;99662.51;448165;1266;144312;-59
2022/04/18 11:25:24;;;;;;;2.30;1.10;;;;;;;10.43;26.45;99648.70;447335;1267;142665;-63
2022/04/18 11:35:30;;;;;;;1.60;1.40;;;;;;;10.68;26.29;99637.52;447783;1268;141496;-58
2022/04/18 11:45:35;;;;;;;2.00;0.80;;;;;;;10.80;26.26;99629.24;448077;1266;140844;-58
2022/04/18 11:55:46;;;;;;;0.90;0.80;;;;;;;10.89;26.56;99610.98;447950;1267;251122;-58
2022/04/18 12:16:19;;;;;;;3.00;0.80;;;;;;;10.58;26.75;99589.84;447367;1266;142026;-58
2022/04/18 12:26:28;;;;;;;1.50;1.10;;;;;;;10.62;26.75;99578.05;448107;1267;142684;-58
2022/04/18 12:36:35;;;;;;;1.80;0.80;;;;;;;10.62;26.86;99561.04;448089;1266;143628;-59
2022/04/18 12:46:42;;;;;;;1.30;1.20;;;;;;;10.35;27.12;99559.80;448099;1266;141979;-59
2022/04/18 12:56:49;;;;;;;1.40;0.90;;;;;;;10.51;27.10;99542.66;448078;1268;141396;-60
2022/04/18 13:06:59;;;;;;;3.30;0.90;;;;;;;10.09;27.43;99533.73;447072;1266;142422;-59
2022/04/18 13:17:10;;;;;;;2.10;0.80;;;;;;;9.91;27.61;99515.27;447882;1267;141694;-59
2022/04/18 13:27:26;;;;;;;1.50;1.00;;;;;;;9.83;26.95;99515.44;441870;1268;195303;-58
2022/04/18 13:37:32;;;;;;;1.20;1.10;;;;;;;9.56;26.66;99502.56;447158;1265;140947;-58
2022/04/18 13:47:39;;;;;;;1.50;0.70;;;;;;;9.52;26.45;99483.95;447932;1267;141696;-58
2022/04/18 13:57:45;;;;;;;1.70;0.50;;;;;;;9.55;26.39;99468.91;447165;1267;141630;-58
2022/04/18 14:07:51;;;;;;;1.70;1.00;;;;;;;9.57;26.46;99467.02;445036;1270;141393;-59
2022/04/18 14:28:16;;;;;;;2.00;0.70;;;;;;;9.64;26.00;99448.23;442945;1266;141256;-58
2022/04/18 14:38:22;;;;;;;1.90;1.00;;;;;;;9.66;26.22;99429.08;444011;1267;198648;-61
2022/04/18 14:48:28;;;;;;;0.70;0.70;;;;;;;9.81;26.39;99414.86;447836;1269;141892;-60
2022/04/18 14:58:34;;;;;;;1.60;0.70;;;;;;;9.93;26.41;99404.45;444486;1269;141539;-58
2022/04/18 15:08:40;;;;;;;1.30;1.20;;;;;;;10.10;26.48;99408.13;432084;1268;140325;-58
2022/04/18 15:18:46;;;;;;;0.90;0.90;;;;;;;10.06;26.50;99400.14;437319;1267;141348;-58
2022/04/18 15:28:51;;;;;;;3.50;1.30;;;;;;;10.23;26.59;99401.87;443205;1268;141541;-58
2022/04/18 15:38:57;;;;;;;1.30;1.10;;;;;;;10.40;26.56;99390.27;447365;1269;142600;-58
2022/04/18 15:49:03;;;;;;;2.30;1.20;;;;;;;10.55;26.44;99388.59;446924;1267;161400;-59
2022/04/18 15:59:09;;;;;;;2.10;1.10;;;;;;;10.63;26.50;99381.75;442325;1267;142231;-57
2022/04/18 16:09:15;;;;;;;2.80;1.10;;;;;;;10.62;26.13;99368.90;445689;1268;141001;-58
2022/04/18 16:19:21;;;;;;;1.50;0.80;;;;;;;10.23;26.32;99361.95;437863;1268;144151;-57
2022/04/18 16:39:52;;;;;;;1.10;0.60;;;;;;;9.74;26.58;99351.86;447297;1267;144122;-57
2022/04/18 16:49:57;;;;;;;3.30;1.30;;;;;;;9.45;27.01;99348.06;447928;1267;141118;-57
2022/04/18 17:00:04;;;;;;;1.70;1.00;;;;;;;9.13;27.40;99338.84;448029;1267;141584;-57
2022/04/18 17:10:13;;;;;;;3.90;2.20;;;;;;;8.90;27.92;99343.56;447239;1267;141575;-58
2022/04/18 17:20:20;;;;;;;2.60;2.30;;;;;;;8.72;27.98;99337.53;447931;1267;140965;-61
2022/04/18 17:30:26;;;;;;;4.30;1.70;;;;;;;8.49;28.51;99337.30;447131;1267;141551;-62
2022/04/18 17:40:32;;;;;;;4.30;2.50;;;;;;;8.30;28.86;99330.68;447225;1267;140803;-63
2022/04/18 17:50:38;;;;;;;5.20;3.40;;;;;;;8.15;29.03;99326.70;438042;1267;141660;-62
2022/04/18 18:00:45;;;;;;;2.50;1.90;;;;;;;8.00;29.56;99325.30;447247;1267;151286;-69
2022/04/18 18:10:52;;;;;;;2.80;1.50;;;;;;;7.83;29.75;99319.94;448002;1267;140662;-69
2022/04/18 18:20:58;;;;;;;3.80;2.40;;;;;;;7.71;30.30;99318.52;438670;1267;140980;-68
2022/04/18 18:31:04;;;;;;;5.20;2.50;;;;;;;7.65;30.59;99320.48;446278;1267;141001;-69
2022/04/18 18:41:16;;;;;;;8.90;3.50;;;;;;;7.55;31.07;99306.89;445206;1267;142075;-69
2022/04/18 19:01:47;;;;;;;7.20;4.40;;;;;;;7.27;31.77;99293.46;447816;1269;140868;-69
2022/04/18 19:11:53;;;;;;;6.70;4.70;;;;;;;6.99;32.09;99287.11;447997;1267;140844;-70
2022/04/18 19:32:23;;;;;;;9.40;5.30;;;;;;;6.29;33.20;99280.99;447842;1268;141328;-69
2022/04/18 19:42:30;;;;;;;6.90;4.70;;;;;;;6.00;34.22;99270.11;447942;1267;142393;-70
2022/04/18 19:52:36;;;;;;;10.60;5.00;;;;;;;5.82;34.48;99262.15;444437;1268;140767;-68
2022/04/18 20:02:42;;;;;;;11.70;5.90;;;;;;;5.67;35.14;99254.34;448066;1267;140107;-68
2022/04/18 20:12:49;;;;;;;11.60;5.70;;;;;;;5.54;35.23;99247.33;447344;1268;142928;-70
2022/04/18 20:22:57;;;;;;;9.80;6.00;;;;;;;5.39;36.21;99243.02;445600;1268;141067;-70
2022/04/18 20:33:01;;;;;;;;;;;;;;;5.37;36.53;99234.45;448139;1268;142339;-68
2022/04/18 20:43:08;;;;;;;8.30;5.70;;;;;;;5.47;36.34;99230.67;441781;1268;126978;-73
2022/04/18 21:03:38;;;;;;;11.30;6.00;;;;;;;5.62;36.34;99222.98;441265;1268;141865;-70
2022/04/18 21:13:44;;;;;;;12.20;6.70;;;;;;;5.69;36.15;99217.45;441141;1268;142680;-68
2022/04/18 21:23:51;;;;;;;16.10;9.00;;;;;;;5.78;36.31;99214.54;446304;1268;141916;-68
2022/04/18 21:33:57;;;;;;;10.70;5.70;;;;;;;5.89;37.16;99204.61;447073;1266;141317;-69
2022/04/18 21:44:03;;;;;;;9.80;6.00;;;;;;;5.97;37.97;99194.48;447774;1267;141498;-69
2022/04/18 21:54:17;;;;;;;10.10;5.30;;;;;;;5.95;38.66;99179.16;447756;1267;141323;-67
2022/04/18 22:04:23;;;;;;;9.10;5.70;;;;;;;5.93;39.36;99173.15;446951;1269;141018;-67
2022/04/18 22:14:29;;;;;;;8.20;5.40;;;;;;;5.90;40.16;99169.51;437916;1268;140472;-67
2022/04/18 22:35:00;;;;;;;5.10;3.30;;;;;;;5.65;40.71;99159.10;431589;1268;141505;-68
2022/04/18 22:45:07;;;;;;;4.20;2.80;;;;;;;5.48;41.16;99141.73;447913;1267;143757;-68
2022/04/18 22:55:13;;;;;;;6.20;3.60;;;;;;;5.32;41.66;99126.04;445848;1267;140854;-66
2022/04/18 23:15:44;;;;;;;6.80;4.30;;;;;;;4.90;42.73;99098.73;447156;1266;141163;-66
2022/04/18 23:25:50;;;;;;;5.50;3.50;;;;;;;4.72;43.31;99093.34;446113;1267;139996;-67
2022/04/18 23:35:56;;;;;;;9.80;5.00;;;;;;;4.64;43.50;99086.95;432180;1268;142092;-66
2022/04/18 23:46:02;;;;;;;2.90;2.50;;;;;;;4.55;45.03;99090.15;436333;1267;140578;-69
2022/04/18 23:56:08;;;;;;;3.10;2.60;;;;;;;4.32;46.85;99078.55;447718;1265;257320;-68
